Time;durP1;ratioP1;P1;durP2;ratioP2;P2;SDS_P1;SDS_P2;PMS_P1;PMS_P2;Temp;Humidity;BMP_temperature;BMP_pressure;BME280_temperature;BME280_humidity;BME280_pressure;Samples;Min_cycle;Max_cycle;Signal;HPM_P1;HPM_P2
2022/09/22 00:00:22;;;;;;;5.93;1.80;;;;;;;;;;5041006;28;20041;-23
2022/09/22 00:02:48;;;;;;;12.40;2.78;;;;;;;;;;5058011;28;20049;-23
2022/09/22 00:05:14;;;;;;;8.90;2.00;;;;;;;;;;5040727;28;20033;-23
2022/09/22 00:07:40;;;;;;;12.15;2.17;;;;;;;;;;5058114;28;20029;-22
2022/09/22 00:10:07;;;;;;;8.68;2.45;;;;;;;;;;5058090;28;20100;-22
2022/09/22 00:12:34;;;;;;;3.75;1.50;;;;;;;;;;5058381;28;20032;-24
2022/09/22 00:15:00;;;;;;;4.75;1.95;;;;;;;;;;5058346;28;20080;-22
2022/09/22 00:17:30;;;;;;;6.75;2.55;;;;;;;;;;5058317;28;20013;-26
2022/09/22 00:19:56;;;;;;;5.32;1.60;;;;;;;;;;5057866;28;20116;-27
2022/09/22 00:22:23;;;;;;;8.57;3.63;;;;;;;;;;5057816;28;20029;-24
2022/09/22 00:24:49;;;;;;;5.82;1.73;;;;;;;;;;5058161;28;20510;-21
2022/09/22 00:27:15;;;;;;;10.77;2.42;;;;;;;;;;5058296;28;20430;-23
2022/09/22 00:29:42;;;;;;;10.15;1.95;;;;;;;;;;5040238;28;20040;-25
2022/09/22 00:32:08;;;;;;;5.85;1.90;;;;;;;;;;5057914;28;20397;-23
2022/09/22 00:34:34;;;;;;;8.98;1.95;;;;;;;;;;5057718;28;20087;-23
2022/09/22 00:37:01;;;;;;;2.97;1.58;;;;;;;;;;5057665;28;20454;-23
2022/09/22 00:39:29;;;;;;;15.68;1.77;;;;;;;;;;5057545;28;20115;-23
2022/09/22 00:41:55;;;;;;;7.30;1.92;;;;;;;;;;5057695;28;20048;-27
2022/09/22 00:44:22;;;;;;;7.05;1.42;;;;;;;;;;5057519;28;20365;-23
2022/09/22 00:46:52;;;;;;;3.63;1.73;;;;;;;;;;5057605;28;20044;-23
2022/09/22 00:49:20;;;;;;;3.88;1.63;;;;;;;;;;5058024;28;20025;-23
2022/09/22 00:51:46;;;;;;;6.68;1.40;;;;;;;;;;5057209;28;20511;-24
2022/09/22 00:54:15;;;;;;;4.10;1.40;;;;;;;;;;5057348;28;20462;-24
2022/09/22 00:56:47;;;;;;;5.43;1.30;;;;;;;;;;5057467;28;20369;-26
2022/09/22 00:59:16;;;;;;;4.90;1.45;;;;;;;;;;5057174;28;20025;-23
2022/09/22 01:01:42;;;;;;;9.20;1.58;;;;;;;;;;5057428;28;20374;-24
2022/09/22 01:04:08;;;;;;;8.70;1.83;;;;;;;;;;5056823;28;20049;-23
2022/09/22 01:06:35;;;;;;;4.95;1.52;;;;;;;;;;5039465;28;20120;-23
2022/09/22 01:09:01;;;;;;;3.83;1.38;;;;;;;;;;5057068;28;20526;-22
2022/09/22 01:11:29;;;;;;;5.68;1.75;;;;;;;;;;5057281;28;20027;-22
2022/09/22 01:14:14;;;;;;;4.18;1.73;;;;;;;;;;5039321;28;20032;-24
2022/09/22 01:16:40;;;;;;;5.32;1.80;;;;;;;;;;5056940;28;20365;-23
2022/09/22 01:19:24;;;;;;;2.53;1.75;;;;;;;;;;5057148;28;20471;-24
2022/09/22 01:22:20;;;;;;;4.25;1.88;;;;;;;;;;5057019;28;20350;-23
2022/09/22 01:24:53;;;;;;;3.58;1.63;;;;;;;;;;4986894;28;20137;-24
2022/09/22 01:27:25;;;;;;;2.92;1.40;;;;;;;;;;5056726;28;20477;-22
2022/09/22 01:30:09;;;;;;;1.98;1.30;;;;;;;;;;5056955;28;20369;-23
2022/09/22 01:32:43;;;;;;;8.70;1.73;;;;;;;;;;5056729;28;20032;-23
2022/09/22 01:35:19;;;;;;;4.97;1.70;;;;;;;;;;5056968;28;20021;-23
2022/09/22 01:37:45;;;;;;;6.13;1.40;;;;;;;;;;5056822;28;20025;-28
2022/09/22 01:40:15;;;;;;;7.63;1.80;;;;;;;;;;5056395;28;20037;-23
2022/09/22 01:42:56;;;;;;;3.03;1.38;;;;;;;;;;5057177;28;20033;-25
2022/09/22 01:45:24;;;;;;;6.00;1.80;;;;;;;;;;5056254;28;20450;-22
2022/09/22 01:47:56;;;;;;;5.03;1.52;;;;;;;;;;5056326;28;20025;-24
2022/09/22 01:50:29;;;;;;;4.63;1.55;;;;;;;;;;5056315;28;20027;-22
2022/09/22 01:52:58;;;;;;;2.88;1.80;;;;;;;;;;5056743;28;20347;-22
2022/09/22 01:55:26;;;;;;;6.20;1.50;;;;;;;;;;5056102;28;20045;-22
2022/09/22 01:57:59;;;;;;;3.67;1.23;;;;;;;;;;5038554;28;20094;-21
2022/09/22 02:00:25;;;;;;;8.65;2.30;;;;;;;;;;5056081;28;20060;-22
2022/09/22 02:03:05;;;;;;;6.90;2.17;;;;;;;;;;5055952;28;20369;-23
2022/09/22 02:05:31;;;;;;;3.25;1.35;;;;;;;;;;5038417;28;20025;-26
2022/09/22 02:07:59;;;;;;;7.82;1.52;;;;;;;;;;5055432;28;20036;-25
2022/09/22 02:10:30;;;;;;;5.72;1.42;;;;;;;;;;5056171;28;20025;-23
2022/09/22 02:12:56;;;;;;;1.80;1.10;;;;;;;;;;5055842;28;20484;-27
2022/09/22 02:18:14;;;;;;;2.88;1.85;;;;;;;;;;5055843;28;20040;-23
2022/09/22 02:20:40;;;;;;;4.88;1.38;;;;;;;;;;5055682;28;20021;-22
2022/09/22 02:23:07;;;;;;;3.85;2.00;;;;;;;;;;5055596;28;20108;-23
2022/09/22 02:25:34;;;;;;;3.63;1.08;;;;;;;;;;5037941;28;20056;-25
2022/09/22 02:28:00;;;;;;;5.18;1.25;;;;;;;;;;5055588;28;20028;-25
2022/09/22 02:30:27;;;;;;;4.25;1.50;;;;;;;;;;5055744;28;20033;-23
2022/09/22 02:32:55;;;;;;;2.88;1.77;;;;;;;;;;5037847;28;20481;-22
2022/09/22 02:35:25;;;;;;;11.23;1.27;;;;;;;;;;5055664;28;20032;-24
2022/09/22 02:37:51;;;;;;;4.28;1.27;;;;;;;;;;5055903;28;20126;-25
2022/09/22 02:40:43;;;;;;;4.57;1.52;;;;;;;;;;5055583;28;20327;-23
2022/09/22 02:43:29;;;;;;;5.15;1.30;;;;;;;;;;5051682;28;20037;-23
2022/09/22 02:46:22;;;;;;;2.97;1.52;;;;;;;;;;5055000;28;20060;-22
2022/09/22 02:48:51;;;;;;;4.07;1.20;;;;;;;;;;5024941;28;20041;-25
2022/09/22 02:51:18;;;;;;;3.00;1.33;;;;;;;;;;5055082;28;20033;-22
2022/09/22 02:53:44;;;;;;;3.63;1.58;;;;;;;;;;5055041;28;20025;-23
2022/09/22 02:56:11;;;;;;;2.35;1.17;;;;;;;;;;5054999;28;20037;-25
2022/09/22 02:58:37;;;;;;;3.53;1.58;;;;;;;;;;5037942;28;20040;-23
2022/09/22 03:01:03;;;;;;;3.25;1.50;;;;;;;;;;5055498;28;20029;-22
2022/09/22 03:03:29;;;;;;;1.85;1.27;;;;;;;;;;5054690;28;20049;-23
2022/09/22 03:05:55;;;;;;;3.30;1.25;;;;;;;;;;5054807;28;20025;-23
2022/09/22 03:08:21;;;;;;;4.10;1.30;;;;;;;;;;5054853;28;20079;-25
2022/09/22 03:10:47;;;;;;;2.58;1.67;;;;;;;;;;5054839;28;20096;-22
2022/09/22 03:13:14;;;;;;;6.53;1.20;;;;;;;;;;5054688;28;20029;-23
2022/09/22 03:15:40;;;;;;;3.67;1.63;;;;;;;;;;5054741;28;20082;-26
2022/09/22 03:18:06;;;;;;;4.28;1.50;;;;;;;;;;5054747;28;20385;-23
2022/09/22 03:20:32;;;;;;;3.42;1.50;;;;;;;;;;5054122;28;20102;-23
2022/09/22 03:22:58;;;;;;;3.10;1.52;;;;;;;;;;5054591;28;20063;-22
2022/09/22 03:25:25;;;;;;;3.78;1.27;;;;;;;;;;5054491;28;20461;-27
2022/09/22 03:27:51;;;;;;;2.88;1.13;;;;;;;;;;5054887;28;20021;-24
2022/09/22 03:30:17;;;;;;;4.10;1.65;;;;;;;;;;5054831;28;20025;-24
2022/09/22 03:32:43;;;;;;;2.28;1.90;;;;;;;;;;5054595;28;20148;-23
2022/09/22 03:35:10;;;;;;;2.67;0.82;;;;;;;;;;5054490;28;20029;-24
2022/09/22 03:37:36;;;;;;;1.42;1.10;;;;;;;;;;5054426;28;20481;-22
2022/09/22 03:40:03;;;;;;;4.30;1.10;;;;;;;;;;5037220;28;20049;-23
2022/09/22 03:42:29;;;;;;;2.17;1.20;;;;;;;;;;5054353;28;20059;-23
2022/09/22 03:44:55;;;;;;;5.25;2.55;;;;;;;;;;5054619;28;20395;-22
2022/09/22 03:47:22;;;;;;;4.60;1.45;;;;;;;;;;5054253;28;20468;-21
2022/09/22 03:49:48;;;;;;;8.00;1.88;;;;;;;;;;5054600;28;20103;-22
2022/09/22 03:52:14;;;;;;;3.65;1.98;;;;;;;;;;5054677;28;20036;-22
2022/09/22 03:54:40;;;;;;;2.35;1.35;;;;;;;;;;5054776;28;20056;-23
2022/09/22 03:57:06;;;;;;;3.38;1.48;;;;;;;;;;5054141;28;20021;-22
2022/09/22 03:59:32;;;;;;;1.60;0.93;;;;;;;;;;5054415;28;20025;-22
2022/09/22 04:02:00;;;;;;;1.95;1.10;;;;;;;;;;5054388;28;20474;-28
2022/09/22 04:04:27;;;;;;;4.30;1.52;;;;;;;;;;5033151;28;20136;-25
2022/09/22 04:06:53;;;;;;;6.70;1.35;;;;;;;;;;5033074;28;20044;-26
2022/09/22 04:09:19;;;;;;;4.40;1.83;;;;;;;;;;5034018;28;20462;-22
2022/09/22 04:11:45;;;;;;;2.63;1.42;;;;;;;;;;5033995;28;20033;-23
2022/09/22 04:14:11;;;;;;;2.42;1.20;;;;;;;;;;5034374;28;20095;-23
2022/09/22 04:16:41;;;;;;;2.58;1.30;;;;;;;;;;5034403;28;20055;-24
2022/09/22 04:19:07;;;;;;;3.83;1.95;;;;;;;;;;5034158;28;20033;-23
2022/09/22 04:21:34;;;;;;;2.60;1.00;;;;;;;;;;5033999;28;20112;-26
2022/09/22 04:24:00;;;;;;;3.72;1.42;;;;;;;;;;5033892;28;20033;-23
2022/09/22 04:26:26;;;;;;;3.40;1.45;;;;;;;;;;5033962;28;20056;-22
2022/09/22 04:28:52;;;;;;;1.85;1.08;;;;;;;;;;5034019;28;20025;-25
2022/09/22 04:31:18;;;;;;;1.52;1.42;;;;;;;;;;5035340;28;20029;-22
2022/09/22 04:33:45;;;;;;;2.15;1.17;;;;;;;;;;5037484;28;20108;-22
2022/09/22 04:36:11;;;;;;;5.65;1.70;;;;;;;;;;5038051;28;20044;-24
2022/09/22 04:38:37;;;;;;;4.45;1.30;;;;;;;;;;5037646;28;20029;-25
2022/09/22 04:41:04;;;;;;;5.65;1.23;;;;;;;;;;5037735;28;20037;-26
2022/09/22 04:43:30;;;;;;;2.88;1.30;;;;;;;;;;5037224;28;20025;-22
2022/09/22 04:45:56;;;;;;;5.70;1.33;;;;;;;;;;5037579;28;20109;-27
2022/09/22 04:48:22;;;;;;;7.13;2.03;;;;;;;;;;5037618;28;20359;-23
2022/09/22 04:50:48;;;;;;;5.63;1.52;;;;;;;;;;5038015;28;20025;-25
2022/09/22 04:53:15;;;;;;;5.80;1.35;;;;;;;;;;5037064;28;20087;-25
2022/09/22 04:55:41;;;;;;;6.43;1.77;;;;;;;;;;5037140;28;20487;-25
2022/09/22 04:58:07;;;;;;;6.22;1.27;;;;;;;;;;5038116;28;20044;-25
2022/09/22 05:00:33;;;;;;;10.80;2.85;;;;;;;;;;5037366;28;20064;-26
2022/09/22 05:03:00;;;;;;;3.47;2.17;;;;;;;;;;5041546;28;20117;-26
2022/09/22 05:05:27;;;;;;;2.72;1.27;;;;;;;;;;5056839;28;20060;-24
2022/09/22 05:07:53;;;;;;;3.22;1.42;;;;;;;;;;5056899;28;20028;-26
2022/09/22 05:10:20;;;;;;;3.05;1.75;;;;;;;;;;5056769;28;20032;-23
2022/09/22 05:12:47;;;;;;;5.72;1.60;;;;;;;;;;5056542;28;20521;-27
2022/09/22 05:15:13;;;;;;;4.78;1.25;;;;;;;;;;5038995;28;20029;-24
2022/09/22 05:17:47;;;;;;;10.13;1.60;;;;;;;;;;5056615;28;20074;-22
2022/09/22 05:20:13;;;;;;;3.83;1.15;;;;;;;;;;5056866;28;20048;-23
2022/09/22 05:22:39;;;;;;;5.20;1.83;;;;;;;;;;5056780;28;20025;-27
2022/09/22 05:25:12;;;;;;;4.32;1.52;;;;;;;;;;5038823;28;20037;-24
2022/09/22 05:27:56;;;;;;;3.40;1.40;;;;;;;;;;5056922;28;20040;-25
2022/09/22 05:30:23;;;;;;;6.13;1.48;;;;;;;;;;5056280;28;20112;-22
2022/09/22 05:32:50;;;;;;;2.70;1.33;;;;;;;;;;5056207;28;20521;-22
2022/09/22 05:35:18;;;;;;;6.70;1.50;;;;;;;;;;5056200;28;20025;-27
2022/09/22 05:37:45;;;;;;;3.95;1.40;;;;;;;;;;5056185;28;20025;-23
2022/09/22 05:40:11;;;;;;;4.90;1.50;;;;;;;;;;5056471;28;20098;-24
2022/09/22 05:42:45;;;;;;;4.78;1.42;;;;;;;;;;5055873;28;20090;-26
2022/09/22 05:45:11;;;;;;;5.80;2.17;;;;;;;;;;5056336;28;20040;-23
2022/09/22 05:47:39;;;;;;;2.28;1.38;;;;;;;;;;5056363;28;20064;-23
2022/09/22 05:50:07;;;;;;;4.22;1.70;;;;;;;;;;5055615;28;20128;-24
2022/09/22 05:52:33;;;;;;;12.75;1.45;;;;;;;;;;5055552;28;20025;-23
2022/09/22 05:54:59;;;;;;;3.88;1.08;;;;;;;;;;5055884;28;20025;-23
2022/09/22 05:57:26;;;;;;;2.80;0.90;;;;;;;;;;5055652;28;20028;-23
2022/09/22 05:59:52;;;;;;;7.63;1.42;;;;;;;;;;5055681;28;20025;-23
2022/09/22 06:02:19;;;;;;;5.22;1.80;;;;;;;;;;5532928;22;20132;-27
2022/09/22 06:04:45;;;;;;;5.18;1.45;;;;;;;;;;5075731;28;20033;-28
2022/09/22 06:07:11;;;;;;;3.08;1.13;;;;;;;;;;5075489;28;20024;-28
2022/09/22 06:09:37;;;;;;;5.15;1.35;;;;;;;;;;5075436;28;20463;-27
2022/09/22 06:12:04;;;;;;;10.60;2.33;;;;;;;;;;5075321;28;20031;-28
2022/09/22 06:14:31;;;;;;;5.05;1.27;;;;;;;;;;5075781;28;20109;-28
2022/09/22 06:16:57;;;;;;;9.70;1.52;;;;;;;;;;5075333;28;20093;-28
2022/09/22 06:19:24;;;;;;;6.20;2.00;;;;;;;;;;5075323;28;20039;-29
2022/09/22 06:21:51;;;;;;;3.30;1.20;;;;;;;;;;5075312;28;20059;-28
2022/09/22 06:24:17;;;;;;;6.28;1.50;;;;;;;;;;5075118;28;20028;-28
2022/09/22 06:26:44;;;;;;;2.53;1.58;;;;;;;;;;5075148;28;20024;-28
2022/09/22 06:29:10;;;;;;;7.50;1.70;;;;;;;;;;5075183;28;20025;-28
2022/09/22 06:31:37;;;;;;;4.55;1.70;;;;;;;;;;5075138;28;20023;-28
2022/09/22 06:34:11;;;;;;;4.57;1.40;;;;;;;;;;5075232;28;20419;-29
2022/09/22 06:36:41;;;;;;;7.20;1.95;;;;;;;;;;5075453;28;20356;-28
2022/09/22 06:39:09;;;;;;;5.95;1.70;;;;;;;;;;5074961;28;20028;-31
2022/09/22 06:41:35;;;;;;;5.35;1.52;;;;;;;;;;5075159;28;20032;-28
2022/09/22 06:44:02;;;;;;;11.48;3.28;;;;;;;;;;5074936;28;20020;-28
2022/09/22 06:46:29;;;;;;;5.75;2.13;;;;;;;;;;5074796;28;20029;-28
2022/09/22 06:48:56;;;;;;;8.35;1.85;;;;;;;;;;5075028;28;20050;-29
2022/09/22 06:51:26;;;;;;;10.77;1.98;;;;;;;;;;5075029;28;20031;-28
2022/09/22 06:53:56;;;;;;;6.25;2.35;;;;;;;;;;5074525;28;20027;-31
2022/09/22 06:56:23;;;;;;;6.00;1.60;;;;;;;;;;5057143;28;20032;-29
2022/09/22 06:58:50;;;;;;;4.45;1.67;;;;;;;;;;5057072;28;20047;-29
2022/09/22 07:01:17;;;;;;;5.63;1.23;;;;;;;;;;5074740;28;20029;-29
2022/09/22 07:03:44;;;;;;;9.48;2.03;;;;;;;;;;5074133;28;20116;-28
2022/09/22 07:06:16;;;;;;;11.55;3.88;;;;;;;;;;5074793;28;20036;-28
2022/09/22 07:08:43;;;;;;;9.70;1.70;;;;;;;;;;5074912;28;20029;-28
2022/09/22 07:11:09;;;;;;;11.43;3.10;;;;;;;;;;5074661;28;20020;-29
2022/09/22 07:13:38;;;;;;;7.43;1.75;;;;;;;;;;5074419;28;20031;-28
2022/09/22 07:16:17;;;;;;;12.25;2.10;;;;;;;;;;5056821;28;20056;-28
2022/09/22 07:18:45;;;;;;;7.15;2.25;;;;;;;;;;5074331;28;20028;-27
2022/09/22 07:21:13;;;;;;;10.25;1.90;;;;;;;;;;5056620;28;20395;-28
2022/09/22 07:23:39;;;;;;;73.88;10.65;;;;;;;;;;5074171;28;20090;-29
2022/09/22 07:26:06;;;;;;;31.27;2.90;;;;;;;;;;5074438;28;20368;-29
2022/09/22 07:28:33;;;;;;;34.65;4.07;;;;;;;;;;5074628;28;20309;-29
2022/09/22 07:31:07;;;;;;;36.03;3.50;;;;;;;;;;5074436;28;20021;-28
2022/09/22 07:33:33;;;;;;;26.70;2.25;;;;;;;;;;5074231;28;20020;-29
2022/09/22 07:36:03;;;;;;;13.88;2.75;;;;;;;;;;5074229;28;20364;-29
2022/09/22 07:38:35;;;;;;;28.40;3.90;;;;;;;;;;5074551;28;20079;-29
2022/09/22 07:41:03;;;;;;;17.30;3.13;;;;;;;;;;5074586;28;20028;-29
2022/09/22 07:43:30;;;;;;;15.20;2.42;;;;;;;;;;5074246;28;20051;-29
2022/09/22 07:45:56;;;;;;;12.02;2.35;;;;;;;;;;5074411;28;20043;-29
2022/09/22 07:48:36;;;;;;;11.27;2.28;;;;;;;;;;5074170;28;20043;-29
2022/09/22 07:51:09;;;;;;;11.43;1.70;;;;;;;;;;5074171;28;20035;-36
2022/09/22 07:53:36;;;;;;;11.65;2.38;;;;;;;;;;5074208;28;20098;-29
2022/09/22 07:56:06;;;;;;;11.07;2.40;;;;;;;;;;5074446;28;20379;-29
2022/09/22 07:58:33;;;;;;;16.42;2.78;;;;;;;;;;5074222;28;20032;-28
2022/09/22 08:01:08;;;;;;;9.07;2.33;;;;;;;;;;5074126;28;20032;-28
2022/09/22 08:03:36;;;;;;;19.67;1.77;;;;;;;;;;5074039;28;20099;-29
2022/09/22 08:06:09;;;;;;;14.55;2.22;;;;;;;;;;5074840;28;20028;-29
2022/09/22 08:08:38;;;;;;;10.15;2.08;;;;;;;;;;5079189;28;20120;-29
2022/09/22 08:11:05;;;;;;;18.20;4.75;;;;;;;;;;5077994;28;20024;-28
2022/09/22 08:13:33;;;;;;;66.45;7.25;;;;;;;;;;5078232;28;20090;-28
2022/09/22 08:16:03;;;;;;;31.52;3.25;;;;;;;;;;5060217;28;20054;-28
2022/09/22 08:18:30;;;;;;;42.97;5.27;;;;;;;;;;5060259;28;20048;-35
2022/09/22 08:20:57;;;;;;;20.10;3.22;;;;;;;;;;5078000;28;20036;-29
2022/09/22 08:23:23;;;;;;;15.77;3.72;;;;;;;;;;5077648;28;20182;-29
2022/09/22 08:25:49;;;;;;;25.55;3.55;;;;;;;;;;5077534;28;20479;-29
2022/09/22 08:28:15;;;;;;;19.40;2.35;;;;;;;;;;5077428;28;20028;-29
2022/09/22 08:30:48;;;;;;;22.33;2.63;;;;;;;;;;5077507;28;20024;-28
2022/09/22 08:33:14;;;;;;;11.73;3.22;;;;;;;;;;5077679;28;20047;-28
2022/09/22 08:35:57;;;;;;;21.58;4.07;;;;;;;;;;5077387;28;20028;-28
2022/09/22 08:38:24;;;;;;;15.98;2.67;;;;;;;;;;5077406;28;20430;-28
2022/09/22 08:41:17;;;;;;;10.60;2.03;;;;;;;;;;5077345;28;20476;-29
2022/09/22 08:43:44;;;;;;;18.38;3.20;;;;;;;;;;5068877;28;20066;-29
2022/09/22 08:46:11;;;;;;;15.75;3.03;;;;;;;;;;5077284;28;20043;-29
2022/09/22 08:54:15;;;;;;;16.90;3.33;;;;;;;;;;5077457;28;20074;-29
2022/09/22 08:56:56;;;;;;;17.60;3.17;;;;;;;;;;5076814;28;20032;-28
2022/09/22 08:59:23;;;;;;;14.93;3.30;;;;;;;;;;5076948;28;20162;-29
2022/09/22 09:02:23;;;;;;;12.38;2.58;;;;;;;;;;5076682;28;20021;-28
2022/09/22 09:04:51;;;;;;;18.17;2.50;;;;;;;;;;5077187;28;20476;-29
2022/09/22 09:07:24;;;;;;;9.65;2.28;;;;;;;;;;5076846;28;20029;-29
2022/09/22 09:10:06;;;;;;;14.23;2.92;;;;;;;;;;5076692;28;20027;-29
2022/09/22 09:12:50;;;;;;;5.72;2.03;;;;;;;;;;5076644;28;20112;-30
2022/09/22 09:15:23;;;;;;;10.15;2.42;;;;;;;;;;5076605;28;20040;-29
2022/09/22 09:17:50;;;;;;;72.53;11.57;;;;;;;;;;5075606;28;20090;-28
2022/09/22 09:20:17;;;;;;;12.52;2.75;;;;;;;;;;5076553;28;20041;-29
2022/09/22 09:22:51;;;;;;;8.75;2.03;;;;;;;;;;5076561;28;20028;-29
2022/09/22 09:25:25;;;;;;;101.50;12.90;;;;;;;;;;5076568;28;20051;-28
2022/09/22 09:28:00;;;;;;;13.52;2.42;;;;;;;;;;5076458;28;20043;-29
2022/09/22 09:30:29;;;;;;;19.35;2.95;;;;;;;;;;5058560;28;20044;-29
2022/09/22 09:32:59;;;;;;;12.07;4.50;;;;;;;;;;5076088;28;20029;-28
2022/09/22 09:35:43;;;;;;;13.55;1.77;;;;;;;;;;5076031;28;20029;-29
2022/09/22 09:38:14;;;;;;;26.55;2.88;;;;;;;;;;5076458;28;20100;-28
2022/09/22 09:40:40;;;;;;;10.98;1.88;;;;;;;;;;5075973;28;20067;-28
2022/09/22 09:43:07;;;;;;;11.38;2.42;;;;;;;;;;5075972;28;20047;-28
2022/09/22 09:45:55;;;;;;;130.13;23.52;;;;;;;;;;5075968;28;20039;-28
2022/09/22 09:48:29;;;;;;;13.02;2.42;;;;;;;;;;5076089;28;20021;-29
2022/09/22 09:51:00;;;;;;;8.82;3.08;;;;;;;;;;5076367;28;20028;-30
2022/09/22 09:53:33;;;;;;;13.20;2.35;;;;;;;;;;5059297;28;20043;-28
2022/09/22 09:55:59;;;;;;;467.42;80.13;;;;;;;;;;5075800;28;20444;-29
2022/09/22 10:01:12;;;;;;;14.55;2.40;;;;;;;;;;5075781;28;20090;-28
2022/09/22 10:03:50;;;;;;;24.05;2.70;;;;;;;;;;5075708;28;20380;-29
2022/09/22 10:06:23;;;;;;;32.80;7.40;;;;;;;;;;5076008;28;20478;-29
2022/09/22 10:08:50;;;;;;;8.38;1.92;;;;;;;;;;5075663;28;20036;-29
2022/09/22 10:11:27;;;;;;;11.02;2.33;;;;;;;;;;5075941;28;20021;-28
2022/09/22 10:13:55;;;;;;;22.63;3.17;;;;;;;;;;5075612;28;20028;-29
2022/09/22 10:16:23;;;;;;;8.18;2.17;;;;;;;;;;5075734;28;20047;-28
2022/09/22 10:18:50;;;;;;;12.25;2.53;;;;;;;;;;5075617;28;20036;-29
2022/09/22 10:21:21;;;;;;;15.85;2.40;;;;;;;;;;5075399;28;20029;-28
2022/09/22 10:23:55;;;;;;;11.32;1.90;;;;;;;;;;5057386;28;20025;-29
2022/09/22 10:26:29;;;;;;;13.27;2.15;;;;;;;;;;5074892;28;20036;-29
2022/09/22 10:29:15;;;;;;;8.43;2.63;;;;;;;;;;5074723;28;20024;-29
2022/09/22 10:31:44;;;;;;;13.23;2.17;;;;;;;;;;5075092;28;20063;-29
2022/09/22 10:34:30;;;;;;;13.60;2.17;;;;;;;;;;5074946;28;20028;-29
2022/09/22 10:36:57;;;;;;;9.55;1.55;;;;;;;;;;5075096;28;20028;-29
2022/09/22 10:39:29;;;;;;;20.10;3.30;;;;;;;;;;5075418;28;20051;-29
2022/09/22 10:45:08;;;;;;;12.45;2.53;;;;;;;;;;5075470;28;20031;-29
2022/09/22 10:47:41;;;;;;;11.23;2.28;;;;;;;;;;5075077;28;20115;-28
2022/09/22 10:50:27;;;;;;;18.08;2.35;;;;;;;;;;5075144;28;20027;-28
2022/09/22 10:53:09;;;;;;;9.02;1.80;;;;;;;;;;5074906;28;20080;-29
2022/09/22 10:55:40;;;;;;;12.68;2.72;;;;;;;;;;5075090;28;20450;-29
2022/09/22 10:58:06;;;;;;;8.95;1.80;;;;;;;;;;5057157;28;20461;-29
2022/09/22 11:00:33;;;;;;;10.63;2.08;;;;;;;;;;5057090;28;20471;-29
2022/09/22 11:03:02;;;;;;;10.63;2.80;;;;;;;;;;5074487;28;20035;-28
2022/09/22 11:14:21;;;;;;;19.15;4.47;;;;;;;;;;5074834;28;20043;-29
2022/09/22 11:17:03;;;;;;;20.50;2.75;;;;;;;;;;5074856;28;20116;-29
2022/09/22 11:19:49;;;;;;;15.38;2.05;;;;;;;;;;5057367;28;20060;-29
2022/09/22 11:22:22;;;;;;;11.30;2.15;;;;;;;;;;5074103;28;20032;-29
2022/09/22 11:25:07;;;;;;;12.48;2.35;;;;;;;;;;5073824;28;20029;-29
2022/09/22 11:27:40;;;;;;;7.22;1.92;;;;;;;;;;5073931;28;20028;-28
2022/09/22 11:30:12;;;;;;;13.60;3.28;;;;;;;;;;5074278;28;20082;-29
2022/09/22 11:32:54;;;;;;;18.83;2.50;;;;;;;;;;5073890;28;20453;-29
2022/09/22 11:35:20;;;;;;;10.23;2.25;;;;;;;;;;5073853;28;20036;-28
2022/09/22 11:38:04;;;;;;;24.42;5.25;;;;;;;;;;5074245;28;20125;-28
2022/09/22 11:40:38;;;;;;;16.00;3.35;;;;;;;;;;5055698;28;20036;-28
2022/09/22 11:43:16;;;;;;;13.75;2.38;;;;;;;;;;5074155;28;20110;-28
2022/09/22 11:45:48;;;;;;;7.60;2.20;;;;;;;;;;5074188;28;20028;-28
2022/09/22 11:48:25;;;;;;;14.02;3.10;;;;;;;;;;5073667;28;20056;-28
2022/09/22 11:51:10;;;;;;;9.82;1.67;;;;;;;;;;5074381;28;20415;-29
2022/09/22 11:53:50;;;;;;;13.25;1.70;;;;;;;;;;5074135;28;20460;-28
2022/09/22 11:56:36;;;;;;;15.65;2.33;;;;;;;;;;5073858;28;20028;-28
2022/09/22 11:59:05;;;;;;;8.05;1.90;;;;;;;;;;5073870;28;20039;-29
2022/09/22 12:01:36;;;;;;;13.55;2.40;;;;;;;;;;5074154;28;20368;-28
2022/09/22 12:04:09;;;;;;;9.48;2.05;;;;;;;;;;5073818;28;20040;-29
2022/09/22 12:06:40;;;;;;;14.13;2.17;;;;;;;;;;5074233;28;20082;-29
2022/09/22 12:09:06;;;;;;;;;;;;;;;;;;5074232;28;20108;-29
2022/09/22 12:11:34;;;;;;;13.40;2.25;;;;;;;;;;5073775;28;19940;-29
2022/09/22 12:14:01;;;;;;;18.35;2.00;;;;;;;;;;5073749;28;20025;-28
2022/09/22 12:16:40;;;;;;;9.80;2.35;;;;;;;;;;5073786;28;20035;-29
2022/09/22 12:19:12;;;;;;;13.15;2.50;;;;;;;;;;5073893;28;20028;-29
2022/09/22 12:21:38;;;;;;;12.88;2.08;;;;;;;;;;5073767;28;20456;-29
2022/09/22 12:24:08;;;;;;;11.52;3.15;;;;;;;;;;5073543;28;20028;-28
2022/09/22 12:26:35;;;;;;;11.07;2.30;;;;;;;;;;5073692;28;20025;-29
2022/09/22 12:29:07;;;;;;;9.30;1.80;;;;;;;;;;5073705;28;20025;-29
2022/09/22 12:31:39;;;;;;;11.20;2.05;;;;;;;;;;5074100;28;20054;-29
2022/09/22 12:34:06;;;;;;;11.48;3.10;;;;;;;;;;5073608;28;20028;-28
2022/09/22 12:36:37;;;;;;;11.73;2.47;;;;;;;;;;5073906;28;20033;-29
2022/09/22 12:39:16;;;;;;;12.93;2.40;;;;;;;;;;5073781;28;20130;-28
2022/09/22 12:41:51;;;;;;;14.77;2.78;;;;;;;;;;5074054;28;20258;-29
2022/09/22 12:44:46;;;;;;;8.77;1.70;;;;;;;;;;5073994;28;20101;-29
2022/09/22 12:47:19;;;;;;;9.32;2.40;;;;;;;;;;5056681;28;20047;-29
2022/09/22 12:49:55;;;;;;;11.23;2.47;;;;;;;;;;5073792;28;20414;-29
2022/09/22 12:52:40;;;;;;;6.97;2.53;;;;;;;;;;5074680;28;20112;-29
2022/09/22 12:55:37;;;;;;;10.35;1.98;;;;;;;;;;5076916;28;20031;-29
2022/09/22 12:58:04;;;;;;;17.27;2.08;;;;;;;;;;5076176;28;20044;-28
2022/09/22 13:00:42;;;;;;;10.35;2.50;;;;;;;;;;5059160;28;20089;-28
2022/09/22 13:03:26;;;;;;;14.07;2.78;;;;;;;;;;5076713;28;20052;-28
2022/09/22 13:06:03;;;;;;;9.13;1.80;;;;;;;;;;5076811;28;20412;-29
2022/09/22 13:08:32;;;;;;;10.95;1.80;;;;;;;;;;5058846;28;20029;-28
2022/09/22 13:11:09;;;;;;;10.30;2.03;;;;;;;;;;5077451;28;20090;-29
2022/09/22 13:13:37;;;;;;;7.95;2.50;;;;;;;;;;5076625;28;20025;-28
2022/09/22 13:16:15;;;;;;;11.18;1.95;;;;;;;;;;5076905;28;20055;-28
2022/09/22 13:18:53;;;;;;;17.65;2.65;;;;;;;;;;5076809;28;20032;-29
2022/09/22 13:21:22;;;;;;;11.00;1.70;;;;;;;;;;5076382;28;20115;-28
2022/09/22 13:23:48;;;;;;;8.80;1.65;;;;;;;;;;5076422;28;20074;-29
2022/09/22 13:26:15;;;;;;;7.40;1.58;;;;;;;;;;5076498;28;20082;-29
2022/09/22 13:28:42;;;;;;;8.32;2.00;;;;;;;;;;5076490;28;20056;-29
2022/09/22 13:31:15;;;;;;;9.30;2.20;;;;;;;;;;5076663;28;20067;-29
2022/09/22 13:33:41;;;;;;;8.18;1.77;;;;;;;;;;5076288;28;20032;-29
2022/09/22 13:36:08;;;;;;;9.65;2.40;;;;;;;;;;5076355;28;20028;-29
2022/09/22 13:38:41;;;;;;;6.03;1.85;;;;;;;;;;5076342;28;20104;-28
2022/09/22 13:41:12;;;;;;;9.70;2.10;;;;;;;;;;5075909;28;20052;-30
2022/09/22 13:43:39;;;;;;;14.60;2.05;;;;;;;;;;5075846;28;20028;-29
2022/09/22 13:46:07;;;;;;;13.05;3.60;;;;;;;;;;5075960;28;20494;-29
2022/09/22 13:48:35;;;;;;;5.32;1.63;;;;;;;;;;5058744;28;20024;-30
2022/09/22 13:51:08;;;;;;;12.40;2.45;;;;;;;;;;5076159;28;20025;-28
2022/09/22 13:53:34;;;;;;;15.75;2.60;;;;;;;;;;5076110;28;20032;-28
2022/09/22 13:56:01;;;;;;;2.25;1.10;;;;;;;;;;5076215;28;20119;-29
2022/09/22 13:58:38;;;;;;;9.32;2.65;;;;;;;;;;5076268;28;20498;-40
2022/09/22 14:01:13;;;;;;;6.63;1.80;;;;;;;;;;5076320;28;20035;-29
2022/09/22 14:03:39;;;;;;;5.60;1.45;;;;;;;;;;5074911;28;20040;-29
2022/09/22 14:06:09;;;;;;;7.32;1.65;;;;;;;;;;5075923;28;20267;-29
2022/09/22 14:08:35;;;;;;;10.45;2.95;;;;;;;;;;5075738;28;20025;-29
2022/09/22 14:11:02;;;;;;;6.38;2.05;;;;;;;;;;5075948;28;20021;-29
2022/09/22 14:13:47;;;;;;;15.00;2.38;;;;;;;;;;5075675;28;20086;-28
2022/09/22 14:16:19;;;;;;;7.75;2.05;;;;;;;;;;5075647;28;20025;-29
2022/09/22 14:18:47;;;;;;;19.58;2.35;;;;;;;;;;5075900;28;20047;-28
2022/09/22 14:21:13;;;;;;;9.35;1.95;;;;;;;;;;5075780;28;20029;-29
2022/09/22 14:23:43;;;;;;;8.10;2.10;;;;;;;;;;5075480;28;20043;-28
2022/09/22 14:26:32;;;;;;;8.73;1.80;;;;;;;;;;5075305;28;20449;-29
2022/09/22 14:28:59;;;;;;;8.70;1.58;;;;;;;;;;5075496;28;20063;-29
2022/09/22 14:31:31;;;;;;;8.60;2.15;;;;;;;;;;5075335;28;20055;-28
2022/09/22 14:33:59;;;;;;;10.85;2.55;;;;;;;;;;5075342;28;20108;-29
2022/09/22 14:36:25;;;;;;;3.35;1.33;;;;;;;;;;5075228;28;20064;-28
2022/09/22 14:38:56;;;;;;;5.43;1.48;;;;;;;;;;5075371;28;20040;-28
2022/09/22 14:41:22;;;;;;;;;;;;;;;;;;5075844;28;20035;-29
2022/09/22 14:43:49;;;;;;;8.80;2.67;;;;;;;;;;5057263;28;19999;-29
2022/09/22 14:46:22;;;;;;;14.38;2.92;;;;;;;;;;5075608;28;20040;-28
2022/09/22 14:48:48;;;;;;;13.95;3.03;;;;;;;;;;5074940;28;20024;-28
2022/09/22 14:51:17;;;;;;;15.48;2.53;;;;;;;;;;5074867;28;20048;-29
2022/09/22 14:53:47;;;;;;;7.22;1.80;;;;;;;;;;5074824;28;20082;-28
2022/09/22 14:56:13;;;;;;;15.77;2.83;;;;;;;;;;5074876;28;20033;-34
2022/09/22 14:58:40;;;;;;;9.15;2.15;;;;;;;;;;5075052;28;20031;-28
2022/09/22 15:04:25;;;;;;;9.05;2.63;;;;;;;;;;5074524;28;20484;-28
2022/09/22 15:06:55;;;;;;;10.68;2.30;;;;;;;;;;5074507;28;20074;-28
2022/09/22 15:09:29;;;;;;;7.78;2.05;;;;;;;;;;5075030;28;20063;-28
2022/09/22 15:11:56;;;;;;;5.20;2.40;;;;;;;;;;5074863;28;20021;-28
2022/09/22 15:14:52;;;;;;;6.35;2.10;;;;;;;;;;5074927;28;20457;-28
2022/09/22 15:20:21;;;;;;;7.30;1.70;;;;;;;;;;5074744;28;20098;-28
2022/09/22 15:22:47;;;;;;;11.25;1.80;;;;;;;;;;5074682;28;20403;-27
2022/09/22 15:25:15;;;;;;;7.80;1.60;;;;;;;;;;5074652;28;20028;-28